EKSN/CNL METAR and TAF weather

Enter ICAO airport designator
Station Type Date Time Source
EKSN METAR 2019/08/21 13:50 UTC NOAA

EKSN 211350Z 26016KT 9999 SCT030 16/09 Q1024


Station Type Date Time Source
EKSN Decoded METAR 2019/08/21 13:50 UTC NOAA

Station name not available
Aug 21, 2019 - 09:50 AM EDT / 2019.08.21 1350 UTC
Wind: from the W (260 degrees) at 18 MPH (16 KT):0
Visibility: greater than 7 mile(s):0
Sky conditions: partly cloudy
Temperature: 60 F (16 C)
Dew Point: 48 F (9 C)
Relative Humidity: 63%
Pressure (altimeter): 30.24 in. Hg (1024 hPa)
ob: EKSN 211350Z 26016KT 9999 SCT030 16/09 Q1024
cycle: 14

Station Type Date Time Source
EKSN TAF UTC NOAA

Error!

Example: see airport list